createdAt,value
2016-10-28T00:00:21.216Z,0
2016-10-28T00:01:21.197Z,0
2016-10-28T00:02:21.209Z,0
2016-10-28T00:03:21.184Z,0
2016-10-28T00:04:21.482Z,0
2016-10-28T00:05:21.199Z,0
2016-10-28T00:06:21.164Z,0
2016-10-28T00:07:21.160Z,0
2016-10-28T00:08:21.153Z,0
2016-10-28T00:09:21.142Z,0
2016-10-28T00:10:21.136Z,0
2016-10-28T00:11:21.158Z,0
2016-10-28T00:12:21.128Z,0
2016-10-28T00:13:21.135Z,0
2016-10-28T00:14:21.134Z,0
2016-10-28T00:15:21.083Z,0
2016-10-28T00:16:21.095Z,0
2016-10-28T00:17:21.085Z,0
2016-10-28T00:18:21.071Z,0
2016-10-28T00:19:21.062Z,0
2016-10-28T00:20:21.049Z,0
2016-10-28T00:21:21.052Z,0
2016-10-28T00:22:21.035Z,0
2016-10-28T00:23:21.037Z,0
2016-10-28T00:24:21.017Z,0
2016-10-28T00:25:21.013Z,0
2016-10-28T00:26:21.013Z,0
2016-10-28T00:27:21.024Z,0
2016-10-28T00:28:20.993Z,0
2016-10-28T00:29:20.987Z,0
2016-10-28T00:30:20.976Z,0
2016-10-28T00:31:20.979Z,0
2016-10-28T00:32:20.956Z,0
2016-10-28T00:33:21.250Z,0
2016-10-28T00:34:21.278Z,0
2016-10-28T00:35:20.982Z,0
2016-10-28T00:36:22.228Z,0
2016-10-28T00:37:22.029Z,0
2016-10-28T00:38:21.114Z,0
2016-10-28T00:39:21.890Z,0
2016-10-28T00:40:21.903Z,0
2016-10-28T00:41:21.544Z,0
2016-10-28T00:42:24.221Z,0
2016-10-28T00:44:24.826Z,0
2016-10-28T00:45:23.619Z,0
2016-10-28T00:46:21.547Z,0
2016-10-28T00:47:22.021Z,0
2016-10-28T00:48:21.619Z,0
2016-10-28T00:49:21.279Z,0
2016-10-28T00:50:21.338Z,0
2016-10-28T00:51:22.551Z,0
2016-10-28T00:53:23.072Z,0
2016-10-28T00:54:22.462Z,0
2016-10-28T00:55:21.090Z,0
2016-10-28T00:56:21.872Z,0
2016-10-28T00:57:21.927Z,0
2016-10-28T00:58:20.762Z,0
2016-10-28T00:59:21.058Z,0
2016-10-28T01:00:20.747Z,0
2016-10-28T01:01:20.771Z,0
2016-10-28T01:02:20.720Z,0
2016-10-28T01:03:20.715Z,0
2016-10-28T01:04:20.747Z,0
2016-10-28T01:05:20.696Z,0
2016-10-28T01:06:20.700Z,0
2016-10-28T01:07:20.683Z,0
2016-10-28T01:08:20.685Z,0
2016-10-28T01:09:20.672Z,0
2016-10-28T01:10:20.995Z,0
2016-10-28T01:11:20.660Z,0
2016-10-28T01:12:20.661Z,0
2016-10-28T01:13:20.644Z,0
2016-10-28T01:14:20.641Z,0
2016-10-28T01:15:20.631Z,0
2016-10-28T01:16:20.618Z,0
2016-10-28T01:17:20.611Z,0
2016-10-28T01:18:20.605Z,0
2016-10-28T01:19:20.597Z,0
2016-10-28T01:20:20.595Z,0
2016-10-28T01:21:20.586Z,0
2016-10-28T01:22:20.570Z,0
2016-10-28T01:23:20.571Z,0
2016-10-28T01:24:20.561Z,0
2016-10-28T01:25:20.551Z,0
2016-10-28T01:26:20.542Z,0
2016-10-28T01:27:20.528Z,0
2016-10-28T01:28:20.537Z,0
2016-10-28T01:29:20.525Z,0
2016-10-28T01:30:20.513Z,0
2016-10-28T01:31:20.507Z,0
2016-10-28T01:32:20.500Z,0
2016-10-28T01:33:20.490Z,0
2016-10-28T01:34:20.481Z,0
2016-10-28T01:35:20.481Z,0
2016-10-28T01:36:20.477Z,0
2016-10-28T01:37:20.455Z,0
2016-10-28T01:38:20.456Z,0
2016-10-28T01:39:20.444Z,0
2016-10-28T01:40:20.435Z,0
2016-10-28T01:41:20.429Z,0
2016-10-28T01:42:20.434Z,0
2016-10-28T01:43:20.416Z,0
2016-10-28T01:44:20.410Z,0
2016-10-28T01:45:20.403Z,0
2016-10-28T01:46:20.401Z,0
2016-10-28T01:47:20.384Z,0
2016-10-28T01:48:20.382Z,0
2016-10-28T01:49:20.357Z,0
2016-10-28T01:50:20.370Z,0
2016-10-28T01:51:20.377Z,0
2016-10-28T01:52:20.362Z,0
2016-10-28T01:53:20.345Z,0
2016-10-28T01:54:20.727Z,0
2016-10-28T01:56:36.674Z,0
2016-10-28T01:57:20.658Z,0
2016-10-28T01:58:22.356Z,0
2016-10-28T01:59:20.283Z,0
2016-10-28T02:00:21.115Z,0
2016-10-28T02:01:22.284Z,0
2016-10-28T02:02:23.642Z,0
2016-10-28T02:03:38.946Z,0
2016-10-28T02:04:22.073Z,0
2016-10-28T02:05:51.399Z,0
2016-10-28T02:07:21.017Z,0
2016-10-28T02:08:21.135Z,0
2016-10-28T02:09:20.957Z,0
2016-10-28T02:11:21.518Z,0
2016-10-28T02:12:21.792Z,0
2016-10-28T02:13:20.955Z,0
2016-10-28T02:14:20.180Z,0
2016-10-28T02:15:21.020Z,0
2016-10-28T02:16:20.171Z,0
2016-10-28T02:17:20.193Z,0
2016-10-28T02:18:20.159Z,0
2016-10-28T02:19:20.173Z,0
2016-10-28T02:20:20.190Z,0
2016-10-28T02:21:20.172Z,0
2016-10-28T02:22:20.132Z,0
2016-10-28T02:23:20.138Z,0
2016-10-28T02:24:20.139Z,0
2016-10-28T02:25:20.096Z,0
2016-10-28T02:26:20.187Z,0
2016-10-28T02:27:20.087Z,0
2016-10-28T02:28:20.077Z,0
2016-10-28T02:29:20.079Z,0
2016-10-28T02:30:20.064Z,0
2016-10-28T02:31:20.055Z,0
2016-10-28T02:32:20.050Z,0
2016-10-28T02:33:20.046Z,0
2016-10-28T02:34:20.040Z,0
2016-10-28T02:35:20.030Z,0
2016-10-28T02:36:20.023Z,0
2016-10-28T02:37:20.018Z,0
2016-10-28T02:38:20.007Z,0
2016-10-28T02:39:20.001Z,0
2016-10-28T02:40:20.005Z,0
2016-10-28T02:41:19.987Z,0
2016-10-28T02:42:19.978Z,0
2016-10-28T02:43:19.970Z,0
2016-10-28T02:44:19.957Z,0
2016-10-28T02:45:19.953Z,0
2016-10-28T02:46:19.946Z,0
2016-10-28T02:47:19.940Z,0
2016-10-28T02:48:19.931Z,0
2016-10-28T02:49:19.968Z,0
2016-10-28T02:50:19.958Z,0
2016-10-28T02:51:19.909Z,0
2016-10-28T02:52:19.902Z,0
2016-10-28T02:53:19.901Z,0
2016-10-28T02:54:19.890Z,0
2016-10-28T02:55:19.884Z,0
2016-10-28T02:56:19.878Z,0
2016-10-28T02:57:19.868Z,0
2016-10-28T02:58:19.861Z,0
2016-10-28T02:59:19.853Z,0
2016-10-28T03:00:19.848Z,0
2016-10-28T03:01:19.835Z,0
2016-10-28T03:02:19.832Z,0
2016-10-28T03:03:19.826Z,0
2016-10-28T03:04:19.857Z,0
2016-10-28T03:05:19.807Z,0
2016-10-28T03:06:19.805Z,0
2016-10-28T03:07:19.792Z,0
2016-10-28T03:08:19.788Z,0
2016-10-28T03:09:19.784Z,0
2016-10-28T03:10:20.082Z,0
2016-10-28T03:11:19.769Z,0
2016-10-28T03:12:20.620Z,0
2016-10-28T03:13:20.552Z,0
2016-10-28T03:14:20.089Z,0
2016-10-28T03:16:21.132Z,0
2016-10-28T03:17:19.755Z,0
2016-10-28T03:18:19.718Z,0
2016-10-28T03:20:21.676Z,0
2016-10-28T03:21:35.962Z,0
2016-10-28T03:22:36.785Z,0
2016-10-28T03:23:21.401Z,0
2016-10-28T03:24:20.233Z,0
2016-10-28T03:25:35.354Z,0
2016-10-28T03:26:19.799Z,0
2016-10-28T03:27:19.651Z,0
2016-10-28T03:28:21.836Z,0
2016-10-28T03:29:21.416Z,0
2016-10-28T03:30:20.645Z,0
2016-10-28T03:31:20.719Z,0
2016-10-28T03:32:20.606Z,0
2016-10-28T03:33:20.160Z,0
2016-10-28T03:34:19.600Z,0
2016-10-28T03:35:19.599Z,0
2016-10-28T03:36:19.586Z,0
2016-10-28T03:37:19.576Z,0
2016-10-28T03:38:19.578Z,0
2016-10-28T03:39:19.572Z,0
2016-10-28T03:40:19.558Z,0
2016-10-28T03:41:19.548Z,0
2016-10-28T03:42:19.543Z,0
2016-10-28T03:43:19.544Z,0
2016-10-28T03:44:19.527Z,0
2016-10-28T03:45:19.519Z,0
2016-10-28T03:46:19.557Z,0
2016-10-28T03:47:19.508Z,0
2016-10-28T03:48:19.504Z,0
2016-10-28T03:49:19.526Z,0
2016-10-28T03:50:19.504Z,0
2016-10-28T03:51:19.484Z,0
2016-10-28T03:52:19.472Z,0
2016-10-28T03:53:19.466Z,0
2016-10-28T03:54:19.459Z,0
2016-10-28T03:55:19.449Z,0
2016-10-28T03:56:19.449Z,0
2016-10-28T03:57:19.440Z,0
2016-10-28T03:58:19.435Z,0
2016-10-28T03:59:19.435Z,0
2016-10-28T04:00:19.422Z,0
2016-10-28T04:01:19.449Z,0
2016-10-28T04:02:19.391Z,0
2016-10-28T04:03:19.393Z,0
2016-10-28T04:04:19.387Z,0
2016-10-28T04:05:19.381Z,0
2016-10-28T04:06:19.376Z,0
2016-10-28T04:07:19.367Z,0
2016-10-28T04:08:19.363Z,0
2016-10-28T04:09:19.353Z,0
2016-10-28T04:10:19.353Z,0
2016-10-28T04:11:19.337Z,0
2016-10-28T04:12:19.325Z,0
2016-10-28T04:13:19.322Z,0
2016-10-28T04:14:19.318Z,0
2016-10-28T04:15:19.339Z,0
2016-10-28T04:16:19.305Z,0
2016-10-28T04:17:19.294Z,0
2016-10-28T04:18:19.294Z,0
2016-10-28T04:19:19.286Z,0
2016-10-28T04:20:19.273Z,0
2016-10-28T04:21:19.264Z,0
2016-10-28T04:22:19.257Z,0
2016-10-28T04:23:19.259Z,0
2016-10-28T04:24:19.247Z,0
2016-10-28T04:25:19.245Z,0
2016-10-28T04:26:19.245Z,0
2016-10-28T04:27:19.257Z,0
2016-10-28T04:28:19.222Z,0
2016-10-28T04:29:19.205Z,0
2016-10-28T04:30:19.203Z,0
2016-10-28T04:31:19.744Z,0
2016-10-28T04:32:21.041Z,0
2016-10-28T04:33:49.003Z,0
2016-10-28T04:34:19.340Z,0
2016-10-28T04:35:19.163Z,0
2016-10-28T04:36:19.616Z,0
2016-10-28T04:37:22.137Z,0
2016-10-28T04:38:22.196Z,0
2016-10-28T04:39:21.778Z,0
2016-10-28T04:40:19.928Z,0
2016-10-28T04:41:21.345Z,0
2016-10-28T04:42:20.612Z,0
2016-10-28T04:43:19.767Z,0
2016-10-28T04:44:20.046Z,0
2016-10-28T04:45:19.099Z,0
2016-10-28T04:47:23.460Z,0
2016-10-28T04:48:20.061Z,0
2016-10-28T04:49:20.989Z,0
2016-10-28T04:50:19.594Z,0
2016-10-28T04:51:19.366Z,0
2016-10-28T04:52:19.036Z,0
2016-10-28T04:53:19.033Z,0
2016-10-28T04:54:19.024Z,0
2016-10-28T04:55:19.012Z,0
2016-10-28T04:56:19.054Z,0
2016-10-28T04:57:19.004Z,0
2016-10-28T04:58:19.004Z,0
2016-10-28T04:59:18.989Z,0
2016-10-28T05:00:18.982Z,0
2016-10-28T05:01:18.987Z,0
2016-10-28T05:02:18.965Z,0
2016-10-28T05:03:18.959Z,0
2016-10-28T05:04:18.945Z,0
2016-10-28T05:05:18.947Z,0
2016-10-28T05:06:18.939Z,0
2016-10-28T05:07:18.935Z,0
2016-10-28T05:08:18.923Z,0
2016-10-28T05:09:18.913Z,0
2016-10-28T05:10:18.899Z,0
2016-10-28T05:11:18.895Z,0
2016-10-28T05:12:18.895Z,0
2016-10-28T05:13:18.886Z,0
2016-10-28T05:14:18.875Z,0
2016-10-28T05:15:18.866Z,0
2016-10-28T05:16:18.860Z,0
2016-10-28T05:17:18.882Z,0
2016-10-28T05:18:18.848Z,0
2016-10-28T05:19:18.834Z,0
2016-10-28T05:20:18.824Z,0
2016-10-28T05:21:18.826Z,0
2016-10-28T05:22:18.811Z,0
2016-10-28T05:23:18.808Z,0
2016-10-28T05:24:18.804Z,0
2016-10-28T05:25:18.791Z,0
2016-10-28T05:26:18.810Z,0
2016-10-28T05:27:18.817Z,0
2016-10-28T05:28:18.762Z,0
2016-10-28T05:29:18.764Z,0
2016-10-28T05:30:18.755Z,0
2016-10-28T05:31:18.753Z,0
2016-10-28T05:32:18.736Z,0
2016-10-28T05:33:18.735Z,0
2016-10-28T05:34:18.725Z,0
2016-10-28T05:35:18.711Z,0
2016-10-28T05:36:18.709Z,0
2016-10-28T05:37:18.698Z,0
2016-10-28T05:38:18.689Z,0
2016-10-28T05:39:18.677Z,0
2016-10-28T05:40:18.679Z,0
2016-10-28T05:41:18.668Z,0
2016-10-28T05:42:18.690Z,0
2016-10-28T05:43:18.651Z,0
2016-10-28T05:44:18.643Z,0
2016-10-28T05:45:18.643Z,0
2016-10-28T05:46:18.686Z,0
2016-10-28T05:47:18.630Z,0
2016-10-28T05:48:18.657Z,0
2016-10-28T05:49:19.361Z,0
2016-10-28T05:50:19.604Z,0
2016-10-28T05:51:18.993Z,0
2016-10-28T05:52:20.085Z,0
2016-10-28T05:53:18.727Z,0
2016-10-28T05:54:18.578Z,0
2016-10-28T05:55:23.710Z,0
2016-10-28T05:56:20.437Z,0
2016-10-28T05:57:21.346Z,0
2016-10-28T05:58:36.909Z,0
2016-10-28T05:59:18.940Z,5
2016-10-28T06:00:20.726Z,5
2016-10-28T06:01:20.002Z,5
2016-10-28T06:02:18.856Z,5
2016-10-28T06:03:18.952Z,5
2016-10-28T06:06:20.433Z,10
2016-10-28T06:07:20.186Z,10
2016-10-28T06:08:18.925Z,10
2016-10-28T06:09:20.250Z,10
2016-10-28T06:10:18.760Z,10
2016-10-28T06:11:18.450Z,10
2016-10-28T06:12:18.439Z,10
2016-10-28T06:13:18.434Z,15
2016-10-28T06:14:18.426Z,15
2016-10-28T06:15:18.417Z,15
2016-10-28T06:16:18.407Z,15
2016-10-28T06:17:18.412Z,20
2016-10-28T06:18:18.385Z,20
2016-10-28T06:19:18.415Z,25
2016-10-28T06:20:18.410Z,25
2016-10-28T06:21:18.686Z,20
2016-10-28T06:22:18.363Z,20
2016-10-28T06:23:18.362Z,25
2016-10-28T06:24:18.350Z,25
2016-10-28T06:25:18.358Z,30
2016-10-28T06:26:18.346Z,35
2016-10-28T06:27:18.628Z,35
2016-10-28T06:28:18.362Z,40
2016-10-28T06:29:18.314Z,40
2016-10-28T06:30:18.305Z,35
2016-10-28T06:31:18.302Z,35
2016-10-28T06:32:18.303Z,30
2016-10-28T06:33:18.281Z,30
2016-10-28T06:34:18.284Z,25
2016-10-28T06:35:18.325Z,30
2016-10-28T06:36:18.269Z,30
2016-10-28T06:37:18.265Z,30
2016-10-28T06:38:18.556Z,25
2016-10-28T06:39:18.275Z,25
2016-10-28T06:40:18.540Z,30
2016-10-28T06:41:18.239Z,30
2016-10-28T06:42:18.218Z,35
2016-10-28T06:43:18.224Z,35
2016-10-28T06:44:18.220Z,35
2016-10-28T06:45:18.207Z,35
2016-10-28T06:46:18.203Z,35
2016-10-28T06:47:18.494Z,30
2016-10-28T06:48:18.191Z,30
2016-10-28T06:49:18.186Z,25
2016-10-28T06:50:18.481Z,25
2016-10-28T06:51:18.170Z,30
2016-10-28T06:52:18.157Z,30
2016-10-28T06:53:18.451Z,25
2016-10-28T06:54:18.150Z,25
2016-10-28T06:55:18.170Z,30
2016-10-28T06:56:18.162Z,35
2016-10-28T06:57:18.171Z,30
2016-10-28T06:58:18.144Z,30
2016-10-28T06:59:18.158Z,30
2016-10-28T07:00:18.145Z,35
2016-10-28T07:01:18.108Z,35
2016-10-28T07:02:18.159Z,35
2016-10-28T07:03:18.128Z,35
2016-10-28T07:04:18.376Z,40
2016-10-28T07:05:18.063Z,40
2016-10-28T07:06:18.066Z,45
2016-10-28T07:07:33.713Z,55
2016-10-28T07:08:19.246Z,55
2016-10-28T07:09:18.594Z,60
2016-10-28T07:11:18.032Z,70
2016-10-28T07:12:18.828Z,60
2016-10-28T07:13:18.766Z,60
2016-10-28T07:14:19.713Z,60
2016-10-28T07:15:21.653Z,70
2016-10-28T07:16:33.955Z,70
2016-10-28T07:17:18.941Z,70
2016-10-28T07:18:19.995Z,65
2016-10-28T07:19:18.681Z,65
2016-10-28T07:20:18.319Z,65
2016-10-28T07:21:18.403Z,65
2016-10-28T07:22:17.957Z,65
2016-10-28T07:23:20.274Z,65
2016-10-28T07:24:21.119Z,70
2016-10-28T07:25:18.710Z,80
2016-10-28T07:26:19.455Z,85
2016-10-28T07:27:18.916Z,90
2016-10-28T07:28:17.909Z,100
2016-10-28T07:29:18.382Z,110
2016-10-28T07:30:17.892Z,125
2016-10-28T07:31:17.892Z,125
2016-10-28T07:32:17.887Z,125
2016-10-28T07:33:17.881Z,120
2016-10-28T07:34:17.875Z,115
2016-10-28T07:35:17.868Z,115
2016-10-28T07:36:18.203Z,110
2016-10-28T07:37:17.859Z,105
2016-10-28T07:38:17.839Z,105
2016-10-28T07:39:17.843Z,110
2016-10-28T07:40:17.876Z,110
2016-10-28T07:41:17.827Z,105
2016-10-28T07:42:17.827Z,105
2016-10-28T07:43:17.844Z,100
2016-10-28T07:44:17.805Z,80
2016-10-28T07:45:17.802Z,75
2016-10-28T07:46:17.799Z,75
2016-10-28T07:47:17.793Z,70
2016-10-28T07:48:17.789Z,70
2016-10-28T07:49:17.780Z,80
2016-10-28T07:50:17.776Z,90
2016-10-28T07:51:17.761Z,100
2016-10-28T07:52:18.073Z,105
2016-10-28T07:53:17.768Z,100
2016-10-28T07:54:18.054Z,100
2016-10-28T07:55:17.740Z,85
2016-10-28T07:56:17.733Z,85
2016-10-28T07:57:17.735Z,85
2016-10-28T07:58:18.027Z,80
2016-10-28T07:59:18.024Z,85
2016-10-28T08:00:18.013Z,95
2016-10-28T08:01:17.698Z,100
2016-10-28T08:02:17.701Z,100
2016-10-28T08:03:17.727Z,105
2016-10-28T08:04:17.696Z,110
2016-10-28T08:05:17.674Z,95
2016-10-28T08:06:17.677Z,95
2016-10-28T08:07:17.669Z,90
2016-10-28T08:08:18.008Z,95
2016-10-28T08:09:17.666Z,105
2016-10-28T08:10:17.649Z,115
2016-10-28T08:11:17.640Z,125
2016-10-28T08:12:17.642Z,115
2016-10-28T08:13:17.629Z,105
2016-10-28T08:14:17.627Z,105
2016-10-28T08:15:17.625Z,100
2016-10-28T08:16:17.651Z,110
2016-10-28T08:17:17.607Z,130
2016-10-28T08:18:17.598Z,145
2016-10-28T08:19:17.596Z,150
2016-10-28T08:20:17.591Z,155
2016-10-28T08:21:17.587Z,175
2016-10-28T08:22:17.574Z,175
2016-10-28T08:23:17.570Z,160
2016-10-28T08:24:17.571Z,140
2016-10-28T08:26:33.920Z,95
2016-10-28T08:27:33.213Z,85
2016-10-28T08:28:33.763Z,85
2016-10-28T08:29:18.382Z,90
2016-10-28T08:30:17.536Z,105
2016-10-28T08:31:17.783Z,110
2016-10-28T08:32:20.011Z,115
2016-10-28T08:33:19.669Z,120
2016-10-28T08:34:19.037Z,125
2016-10-28T08:35:20.226Z,125
2016-10-28T08:37:18.338Z,135
2016-10-28T08:38:32.708Z,140
2016-10-28T08:39:18.451Z,140
2016-10-28T08:40:17.667Z,140
2016-10-28T08:41:19.377Z,140
2016-10-28T08:42:19.513Z,135
2016-10-28T08:43:19.528Z,125
2016-10-28T08:44:18.182Z,130
2016-10-28T08:45:18.624Z,130
2016-10-28T08:46:18.229Z,120
2016-10-28T08:47:17.561Z,120
2016-10-28T08:48:17.425Z,120
2016-10-28T08:49:17.419Z,115
2016-10-28T08:50:17.428Z,115
2016-10-28T08:51:17.418Z,110
2016-10-28T08:52:17.409Z,110
2016-10-28T08:53:17.400Z,125
2016-10-28T08:54:17.391Z,140
2016-10-28T08:55:17.387Z,195
2016-10-28T08:56:17.431Z,230
2016-10-28T08:57:17.379Z,210
2016-10-28T08:58:17.366Z,205
2016-10-28T08:59:17.369Z,220
2016-10-28T09:00:17.365Z,240
2016-10-28T09:01:17.373Z,250
2016-10-28T09:02:17.348Z,255
2016-10-28T09:03:17.380Z,275
2016-10-28T09:04:17.365Z,300
2016-10-28T09:05:17.332Z,310
2016-10-28T09:06:17.364Z,280
2016-10-28T09:07:17.326Z,250
2016-10-28T09:08:17.320Z,225
2016-10-28T09:09:17.305Z,240
2016-10-28T09:10:17.320Z,265
2016-10-28T09:11:17.301Z,260
2016-10-28T09:12:17.293Z,240
2016-10-28T09:13:17.289Z,205
2016-10-28T09:14:17.281Z,180
2016-10-28T09:15:17.278Z,165
2016-10-28T09:16:17.270Z,165
2016-10-28T09:17:17.579Z,175
2016-10-28T09:18:17.254Z,170
2016-10-28T09:19:17.261Z,165
2016-10-28T09:20:17.262Z,155
2016-10-28T09:21:17.254Z,145
2016-10-28T09:22:17.244Z,135
2016-10-28T09:23:17.242Z,130
2016-10-28T09:24:17.237Z,135
2016-10-28T09:25:17.237Z,140
2016-10-28T09:26:17.232Z,145
2016-10-28T09:27:17.213Z,160
2016-10-28T09:28:17.219Z,190
2016-10-28T09:29:17.214Z,215
2016-10-28T09:30:17.204Z,220
2016-10-28T09:31:17.201Z,235
2016-10-28T09:32:17.509Z,250
2016-10-28T09:33:17.202Z,230
2016-10-28T09:34:17.202Z,210
2016-10-28T09:35:17.183Z,205
2016-10-28T09:36:17.182Z,205
2016-10-28T09:37:17.168Z,205
2016-10-28T09:38:17.217Z,215
2016-10-28T09:39:17.168Z,230
2016-10-28T09:40:17.157Z,210
2016-10-28T09:41:17.149Z,225
2016-10-28T09:42:17.154Z,260
2016-10-28T09:43:17.160Z,270
2016-10-28T09:45:33.655Z,205
2016-10-28T09:46:17.779Z,165
2016-10-28T09:47:32.224Z,135
2016-10-28T09:48:32.734Z,120
2016-10-28T09:49:18.369Z,115
2016-10-28T09:51:20.038Z,110
2016-10-28T09:52:18.921Z,120
2016-10-28T09:53:18.806Z,135
2016-10-28T09:55:47.895Z,160
2016-10-28T09:56:32.456Z,165
2016-10-28T09:57:17.568Z,175
2016-10-28T09:58:17.568Z,210
2016-10-28T09:59:20.118Z,255
2016-10-28T10:01:19.153Z,245
2016-10-28T10:02:18.651Z,260
2016-10-28T10:03:17.821Z,255
2016-10-28T10:04:18.070Z,240
2016-10-28T10:05:17.041Z,215
2016-10-28T10:06:17.551Z,170
2016-10-28T10:07:17.075Z,155
2016-10-28T10:08:17.326Z,150
2016-10-28T10:09:17.028Z,145
2016-10-28T10:10:17.030Z,150
2016-10-28T10:11:17.013Z,165
2016-10-28T10:12:17.316Z,190
2016-10-28T10:13:17.037Z,170
2016-10-28T10:14:16.999Z,195
2016-10-28T10:15:16.995Z,240
2016-10-28T10:16:17.007Z,270
2016-10-28T10:17:17.027Z,280
2016-10-28T10:18:16.978Z,235
2016-10-28T10:19:16.982Z,195
2016-10-28T10:20:16.975Z,160
2016-10-28T10:21:16.965Z,155
2016-10-28T10:22:16.974Z,170
2016-10-28T10:23:17.043Z,170
2016-10-28T10:24:17.013Z,160
2016-10-28T10:25:16.947Z,145
2016-10-28T10:26:16.947Z,145
2016-10-28T10:27:17.251Z,140
2016-10-28T10:28:16.989Z,135
2016-10-28T10:29:16.949Z,135
2016-10-28T10:30:17.235Z,145
2016-10-28T10:31:16.925Z,145
2016-10-28T10:32:16.930Z,145
2016-10-28T10:33:16.924Z,150
2016-10-28T10:34:16.917Z,150
2016-10-28T10:35:16.952Z,155
2016-10-28T10:36:16.921Z,160
2016-10-28T10:37:17.211Z,150
2016-10-28T10:38:16.900Z,140
2016-10-28T10:39:16.891Z,120
2016-10-28T10:40:16.917Z,110
2016-10-28T10:41:16.891Z,95
2016-10-28T10:42:16.928Z,105
2016-10-28T10:43:16.908Z,115
2016-10-28T10:44:16.872Z,130
2016-10-28T10:45:16.878Z,135
2016-10-28T10:46:16.867Z,135
2016-10-28T10:47:16.875Z,145
2016-10-28T10:48:16.882Z,155
2016-10-28T10:49:16.849Z,170
2016-10-28T10:50:16.844Z,155
2016-10-28T10:51:16.842Z,145
2016-10-28T10:52:16.843Z,145
2016-10-28T10:53:16.853Z,160
2016-10-28T10:54:16.827Z,175
2016-10-28T10:55:16.823Z,205
2016-10-28T10:56:16.823Z,200
2016-10-28T10:57:16.820Z,215
2016-10-28T10:58:16.805Z,230
2016-10-28T10:59:16.814Z,245
2016-10-28T11:00:16.798Z,270
2016-10-28T11:01:16.807Z,330
2016-10-28T11:02:17.594Z,360
2016-10-28T11:03:17.691Z,310
2016-10-28T11:04:46.964Z,320
2016-10-28T11:05:18.433Z,295
2016-10-28T11:06:17.530Z,275
2016-10-28T11:07:17.876Z,240
2016-10-28T11:08:21.105Z,225
2016-10-28T11:10:18.242Z,210
2016-10-28T11:11:18.176Z,185
2016-10-28T11:13:33.850Z,125
2016-10-28T11:14:17.094Z,120
2016-10-28T11:15:17.589Z,110
2016-10-28T11:16:17.329Z,100
2016-10-28T11:17:17.866Z,110
2016-10-28T11:19:18.278Z,135
2016-10-28T11:20:18.759Z,135
2016-10-28T11:21:18.088Z,135
2016-10-28T11:22:17.240Z,125
2016-10-28T11:23:16.705Z,115
2016-10-28T11:24:17.007Z,125
2016-10-28T11:25:16.728Z,130
2016-10-28T11:26:16.700Z,130
2016-10-28T11:27:16.688Z,125
2016-10-28T11:28:16.687Z,120
2016-10-28T11:29:16.687Z,110
2016-10-28T11:30:16.674Z,95
2016-10-28T11:31:16.681Z,90
2016-10-28T11:32:16.674Z,85
2016-10-28T11:33:16.668Z,85
2016-10-28T11:34:16.657Z,90
2016-10-28T11:35:16.651Z,95
2016-10-28T11:36:16.649Z,105
2016-10-28T11:37:16.641Z,120
2016-10-28T11:38:16.637Z,135
2016-10-28T11:39:16.628Z,145
2016-10-28T11:40:16.648Z,145
2016-10-28T11:41:16.626Z,125
2016-10-28T11:42:16.622Z,110
2016-10-28T11:43:16.615Z,100
2016-10-28T11:44:16.913Z,90
2016-10-28T11:45:16.607Z,85
2016-10-28T11:46:16.631Z,85
2016-10-28T11:47:16.895Z,80
2016-10-28T11:48:16.898Z,80
2016-10-28T11:49:16.627Z,80
2016-10-28T11:50:16.586Z,80
2016-10-28T11:51:16.879Z,80
2016-10-28T11:52:16.573Z,85
2016-10-28T11:53:16.604Z,80
2016-10-28T11:54:16.566Z,70
2016-10-28T11:55:16.561Z,60
2016-10-28T11:56:16.556Z,60
2016-10-28T11:57:16.858Z,60
2016-10-28T11:58:16.542Z,55
2016-10-28T11:59:16.554Z,55
2016-10-28T12:00:16.534Z,55
2016-10-28T12:01:16.534Z,55
2016-10-28T12:02:16.528Z,60
2016-10-28T12:03:16.845Z,65
2016-10-28T12:04:16.530Z,65
2016-10-28T12:05:16.823Z,70
2016-10-28T12:06:16.511Z,75
2016-10-28T12:07:16.508Z,85
2016-10-28T12:08:16.494Z,90
2016-10-28T12:09:16.489Z,90
2016-10-28T12:10:16.487Z,100
2016-10-28T12:11:16.492Z,100
2016-10-28T12:12:16.477Z,95
2016-10-28T12:13:16.470Z,90
2016-10-28T12:14:16.476Z,85
2016-10-28T12:15:16.460Z,70
2016-10-28T12:16:16.460Z,65
2016-10-28T12:17:16.456Z,70
2016-10-28T12:18:16.440Z,70
2016-10-28T12:19:16.439Z,85
2016-10-28T12:20:31.899Z,90
2016-10-28T12:22:17.431Z,105
2016-10-28T12:23:16.755Z,110
2016-10-28T12:24:16.752Z,115
2016-10-28T12:25:16.442Z,120
2016-10-28T12:26:16.659Z,125
2016-10-28T12:28:19.871Z,135
2016-10-28T12:30:18.394Z,170
2016-10-28T12:31:17.983Z,185
2016-10-28T12:32:31.487Z,175
2016-10-28T12:33:18.771Z,175
2016-10-28T12:34:18.021Z,185
2016-10-28T12:35:16.569Z,200
2016-10-28T12:36:18.211Z,205
2016-10-28T12:37:19.847Z,205
2016-10-28T12:38:18.030Z,205
2016-10-28T12:39:19.338Z,200
2016-10-28T12:40:16.538Z,200
2016-10-28T12:41:16.328Z,225
2016-10-28T12:42:16.327Z,235
2016-10-28T12:43:16.323Z,240
2016-10-28T12:44:16.317Z,210
2016-10-28T12:45:16.309Z,180
2016-10-28T12:46:16.303Z,180
2016-10-28T12:47:16.317Z,155
2016-10-28T12:48:16.600Z,145
2016-10-28T12:49:16.289Z,130
2016-10-28T12:50:16.283Z,130
2016-10-28T12:51:16.289Z,105
2016-10-28T12:52:16.282Z,110
2016-10-28T12:53:16.271Z,110
2016-10-28T12:54:16.268Z,120
2016-10-28T12:55:16.271Z,125
2016-10-28T12:56:16.246Z,110
2016-10-28T12:57:16.269Z,100
2016-10-28T12:58:16.249Z,90
2016-10-28T12:59:16.239Z,80
2016-10-28T13:00:16.230Z,80
2016-10-28T13:01:16.240Z,75
2016-10-28T13:02:16.228Z,80
2016-10-28T13:03:16.221Z,80
2016-10-28T13:04:16.219Z,80
2016-10-28T13:05:16.259Z,90
2016-10-28T13:06:16.208Z,95
2016-10-28T13:07:16.198Z,95
2016-10-28T13:08:16.194Z,95
2016-10-28T13:09:16.506Z,85
2016-10-28T13:10:16.180Z,80
2016-10-28T13:11:16.184Z,80
2016-10-28T13:12:16.173Z,95
2016-10-28T13:13:16.180Z,95
2016-10-28T13:14:16.175Z,95
2016-10-28T13:15:16.165Z,90
2016-10-28T13:16:16.157Z,80
2016-10-28T13:17:16.454Z,80
2016-10-28T13:18:16.440Z,80
2016-10-28T13:19:16.187Z,90
2016-10-28T13:20:16.158Z,95
2016-10-28T13:21:16.127Z,95
2016-10-28T13:22:16.176Z,100
2016-10-28T13:23:16.156Z,100
2016-10-28T13:24:16.113Z,105
2016-10-28T13:25:16.171Z,105
2016-10-28T13:26:16.160Z,110
2016-10-28T13:27:16.724Z,115
2016-10-28T13:28:16.087Z,110
2016-10-28T13:29:16.088Z,110
2016-10-28T13:30:16.142Z,100
2016-10-28T13:31:16.163Z,95
2016-10-28T13:32:16.142Z,85
2016-10-28T13:33:16.061Z,75
2016-10-28T13:34:16.065Z,80
2016-10-28T13:35:16.362Z,85
2016-10-28T13:36:16.059Z,90
2016-10-28T13:37:16.045Z,90
2016-10-28T13:38:16.041Z,95
2016-10-28T13:39:31.147Z,100
2016-10-28T13:40:16.282Z,95
2016-10-28T13:41:16.229Z,85
2016-10-28T13:42:16.756Z,80
2016-10-28T13:43:16.512Z,75
2016-10-28T13:44:16.048Z,75
2016-10-28T13:45:18.982Z,65
2016-10-28T13:46:19.219Z,55
2016-10-28T13:47:19.128Z,50
2016-10-28T13:48:18.077Z,50
2016-10-28T13:49:18.410Z,50
2016-10-28T13:50:17.361Z,55
2016-10-28T13:51:31.353Z,60
2016-10-28T13:52:15.963Z,60
2016-10-28T13:53:15.996Z,50
2016-10-28T13:54:17.842Z,50
2016-10-28T13:55:18.878Z,45
2016-10-28T13:56:19.313Z,40
2016-10-28T13:57:18.179Z,45
2016-10-28T13:58:16.122Z,55
2016-10-28T13:59:16.658Z,55
2016-10-28T14:00:16.187Z,55
2016-10-28T14:01:15.929Z,50
2016-10-28T14:02:16.040Z,40
2016-10-28T14:03:15.928Z,35
2016-10-28T14:04:15.943Z,35
2016-10-28T14:05:15.904Z,30
2016-10-28T14:06:15.933Z,25
2016-10-28T14:07:15.899Z,30
2016-10-28T14:08:16.193Z,30
2016-10-28T14:09:15.886Z,30
2016-10-28T14:10:15.890Z,35
2016-10-28T14:11:15.878Z,30
2016-10-28T14:12:15.866Z,30
2016-10-28T14:13:15.864Z,30
2016-10-28T14:14:16.175Z,25
2016-10-28T14:15:15.854Z,30
2016-10-28T14:16:15.855Z,30
2016-10-28T14:17:15.845Z,30
2016-10-28T14:18:16.195Z,35
2016-10-28T14:19:15.823Z,40
2016-10-28T14:20:15.827Z,40
2016-10-28T14:21:15.829Z,45
2016-10-28T14:22:15.815Z,45
2016-10-28T14:23:15.849Z,45
2016-10-28T14:24:15.801Z,40
2016-10-28T14:25:15.807Z,40
2016-10-28T14:26:15.805Z,45
2016-10-28T14:27:15.788Z,45
2016-10-28T14:28:16.084Z,50
2016-10-28T14:29:15.782Z,45
2016-10-28T14:30:15.771Z,40
2016-10-28T14:31:15.768Z,45
2016-10-28T14:32:15.761Z,45
2016-10-28T14:33:15.760Z,55
2016-10-28T14:34:15.749Z,45
2016-10-28T14:35:15.743Z,35
2016-10-28T14:36:15.741Z,40
2016-10-28T14:37:15.741Z,40
2016-10-28T14:38:15.747Z,40
2016-10-28T14:39:15.730Z,40
2016-10-28T14:40:15.770Z,35
2016-10-28T14:41:15.711Z,35